createdAt,value
2022-08-03T00:02:58.478Z,76
2022-08-03T00:07:57.866Z,75
2022-08-03T00:12:57.981Z,75
2022-08-03T00:17:58.193Z,76
2022-08-03T00:22:58.287Z,76
2022-08-03T00:27:58.417Z,76
2022-08-03T00:32:59.567Z,76
2022-08-03T00:37:58.445Z,76
2022-08-03T00:42:58.498Z,76
2022-08-03T00:47:58.670Z,76
2022-08-03T00:52:57.777Z,76
2022-08-03T00:57:57.959Z,76
2022-08-03T01:02:58.073Z,76
2022-08-03T01:07:58.260Z,76
2022-08-03T01:12:58.443Z,76
2022-08-03T01:17:58.542Z,76
2022-08-03T01:22:58.674Z,76
2022-08-03T01:27:58.856Z,74
2022-08-03T01:33:03.034Z,74
2022-08-03T01:37:57.895Z,74
2022-08-03T01:42:57.996Z,74
2022-08-03T01:47:58.236Z,75
2022-08-03T01:52:58.450Z,75
2022-08-03T01:58:06.948Z,78
2022-08-03T02:02:58.306Z,78
2022-08-03T02:07:58.414Z,79
2022-08-03T02:12:58.721Z,79
2022-08-03T02:17:58.771Z,79
2022-08-03T02:22:57.918Z,79
2022-08-03T02:27:58.216Z,80
2022-08-03T02:32:58.307Z,80
2022-08-03T02:37:58.534Z,80
2022-08-03T02:42:58.689Z,80
2022-08-03T02:47:58.108Z,81
2022-08-03T02:52:58.321Z,81
2022-08-03T02:58:01.839Z,82
2022-08-03T03:02:58.922Z,82
2022-08-03T03:07:59.019Z,83
2022-08-03T03:12:58.634Z,83
2022-08-03T03:17:58.219Z,83
2022-08-03T03:22:58.411Z,83
2022-08-03T03:27:58.310Z,83
2022-08-03T03:32:57.915Z,83
2022-08-03T03:37:58.413Z,84
2022-08-03T03:42:58.893Z,84
2022-08-03T03:47:58.132Z,84
2022-08-03T03:52:58.285Z,84
2022-08-03T03:57:58.255Z,84
2022-08-03T04:02:57.986Z,84
2022-08-03T04:07:58.215Z,84
2022-08-03T04:12:58.388Z,84
2022-08-03T04:17:58.965Z,85
2022-08-03T04:22:58.217Z,85
2022-08-03T04:28:32.062Z,84
2022-08-03T04:32:58.549Z,84
2022-08-03T04:37:58.850Z,84
2022-08-03T04:42:58.034Z,84
2022-08-03T04:47:58.552Z,83
2022-08-03T04:52:58.303Z,83
2022-08-03T04:57:58.521Z,82
2022-08-03T05:02:58.777Z,82
2022-08-03T05:08:00.900Z,81
2022-08-03T05:12:58.755Z,81
2022-08-03T05:17:59.550Z,81
2022-08-03T05:22:59.079Z,81
2022-08-03T05:27:58.128Z,80
2022-08-03T05:32:58.256Z,80
2022-08-03T05:37:58.311Z,79
2022-08-03T05:42:58.429Z,79
2022-08-03T05:47:58.546Z,78
2022-08-03T05:52:58.664Z,78
2022-08-03T05:57:58.938Z,77
2022-08-03T06:02:58.122Z,77
2022-08-03T06:07:58.500Z,77
2022-08-03T06:12:58.684Z,77
2022-08-03T06:18:02.395Z,76
2022-08-03T06:23:01.534Z,76
2022-08-03T06:27:58.771Z,74
2022-08-03T06:32:58.987Z,74
2022-08-03T06:37:58.167Z,73
2022-08-03T06:42:58.849Z,73
2022-08-03T06:47:58.709Z,72
2022-08-03T06:52:58.035Z,72
2022-08-03T06:58:03.745Z,71
2022-08-03T07:02:58.764Z,71
2022-08-03T07:07:58.920Z,67
2022-08-03T07:12:58.036Z,67
2022-08-03T07:17:58.325Z,65
2022-08-03T07:22:58.700Z,65
2022-08-03T07:27:58.368Z,62
2022-08-03T07:32:58.816Z,62
2022-08-03T07:37:58.169Z,58
2022-08-03T07:42:58.426Z,58
2022-08-03T07:47:58.604Z,58
2022-08-03T07:52:58.732Z,58
2022-08-03T07:57:58.958Z,56
2022-08-03T08:02:58.246Z,56
2022-08-03T08:07:58.733Z,55
2022-08-03T08:12:58.910Z,55
2022-08-03T08:17:59.067Z,53
2022-08-03T08:23:02.108Z,53
2022-08-03T08:28:33.806Z,53
2022-08-03T08:32:58.235Z,53
2022-08-03T08:38:05.903Z,53
2022-08-03T08:42:59.400Z,53
2022-08-03T08:48:08.097Z,52
2022-08-03T08:52:58.250Z,52
2022-08-03T08:57:59.013Z,52
2022-08-03T09:02:58.477Z,52
2022-08-03T09:07:58.930Z,52
2022-08-03T09:12:58.343Z,52
2022-08-03T09:17:58.239Z,52
2022-08-03T09:22:58.800Z,52
2022-08-03T09:27:58.352Z,52
2022-08-03T09:32:58.788Z,52
2022-08-03T09:38:14.520Z,51
2022-08-03T09:42:58.890Z,51
2022-08-03T09:47:58.303Z,51
2022-08-03T09:52:58.434Z,51
2022-08-03T09:57:58.630Z,50
2022-08-03T10:02:58.825Z,50
2022-08-03T10:07:59.085Z,52
2022-08-03T10:12:58.512Z,52
2022-08-03T10:17:58.708Z,49
2022-08-03T10:22:58.844Z,49
2022-08-03T10:27:59.013Z,51
2022-08-03T10:32:58.308Z,51
2022-08-03T10:37:59.218Z,52
2022-08-03T10:42:58.719Z,52
2022-08-03T10:47:58.956Z,49
2022-08-03T10:53:02.111Z,49
2022-08-03T10:57:59.295Z,49
2022-08-03T11:02:58.464Z,49
2022-08-03T11:07:59.103Z,48
2022-08-03T11:12:58.308Z,48
2022-08-03T11:17:59.464Z,49
2022-08-03T11:22:58.769Z,49
2022-08-03T11:27:58.995Z,47
2022-08-03T11:32:58.319Z,47
2022-08-03T11:38:05.744Z,46
2022-08-03T11:42:58.978Z,46
2022-08-03T11:47:59.120Z,46
2022-08-03T11:52:58.716Z,46
2022-08-03T11:59:22.222Z,46
2022-08-03T12:02:58.751Z,46
2022-08-03T12:08:06.824Z,46
2022-08-03T12:12:58.540Z,46
2022-08-03T12:17:58.648Z,46
2022-08-03T12:22:58.935Z,46
2022-08-03T12:27:59.113Z,45
2022-08-03T12:32:58.464Z,45
2022-08-03T12:37:58.744Z,44
2022-08-03T12:42:58.355Z,44
2022-08-03T12:47:58.597Z,44
2022-08-03T12:52:58.954Z,44
2022-08-03T12:57:58.214Z,44
2022-08-03T13:03:42.139Z,44
2022-08-03T13:07:59.281Z,45
2022-08-03T13:12:58.357Z,45
2022-08-03T13:17:58.645Z,43
2022-08-03T13:23:01.241Z,43
2022-08-03T13:28:06.519Z,45
2022-08-03T13:32:58.938Z,45
2022-08-03T13:37:59.512Z,44
2022-08-03T13:42:58.868Z,44
2022-08-03T13:47:59.196Z,44
2022-08-03T13:52:58.554Z,44
2022-08-03T13:58:07.301Z,45
2022-08-03T14:03:14.237Z,45
2022-08-03T14:08:05.458Z,43
2022-08-03T14:12:58.239Z,43
2022-08-03T14:17:59.160Z,42
2022-08-03T14:22:58.566Z,42
2022-08-03T14:27:58.747Z,41
2022-08-03T14:33:01.040Z,41
2022-08-03T14:37:59.256Z,42
2022-08-03T14:42:58.431Z,42
2022-08-03T14:50:42.886Z,41
2022-08-03T14:53:05.192Z,41
2022-08-03T14:57:59.048Z,42
2022-08-03T15:02:58.843Z,42
2022-08-03T15:07:59.020Z,43
2022-08-03T15:12:59.263Z,43
2022-08-03T15:18:00.973Z,42
2022-08-03T15:22:58.489Z,42
2022-08-03T15:28:04.825Z,42
2022-08-03T15:32:58.726Z,42
2022-08-03T15:37:59.190Z,41
2022-08-03T15:42:58.589Z,41
2022-08-03T15:47:59.056Z,42
2022-08-03T15:52:58.457Z,42
2022-08-03T15:59:13.855Z,42
2022-08-03T16:02:59.265Z,42
2022-08-03T16:08:06.324Z,42
2022-08-03T16:12:59.068Z,42
2022-08-03T16:17:59.291Z,42
2022-08-03T16:23:10.702Z,42
2022-08-03T16:28:14.136Z,42
2022-08-03T16:32:59.245Z,42
2022-08-03T16:37:58.384Z,43
2022-08-03T16:42:58.712Z,43
2022-08-03T16:48:06.199Z,43
2022-08-03T16:52:58.351Z,43
2022-08-03T16:58:00.738Z,43
2022-08-03T17:02:58.902Z,43
2022-08-03T17:07:59.225Z,43
2022-08-03T17:12:58.529Z,43
2022-08-03T17:18:02.440Z,43
2022-08-03T17:22:58.650Z,43
2022-08-03T17:28:57.487Z,43
2022-08-03T17:32:59.861Z,43
2022-08-03T17:38:06.577Z,43
2022-08-03T17:42:59.193Z,43
2022-08-03T17:47:59.357Z,44
2022-08-03T17:52:58.510Z,44
2022-08-03T17:58:03.471Z,44
2022-08-03T18:03:00.258Z,44
2022-08-03T18:08:09.411Z,44
2022-08-03T18:12:59.524Z,44
2022-08-03T18:18:02.999Z,45
2022-08-03T18:28:00.169Z,47
2022-08-03T18:34:17.378Z,47
2022-08-03T18:38:01.127Z,48
2022-08-03T18:43:09.033Z,48
2022-08-03T18:47:58.431Z,49
2022-08-03T18:52:58.907Z,49
2022-08-03T18:57:59.166Z,50
2022-08-03T19:02:59.336Z,50
2022-08-03T19:08:00.067Z,52
2022-08-03T19:13:00.776Z,52
2022-08-03T19:17:59.227Z,54
2022-08-03T19:22:59.453Z,54
2022-08-03T19:27:58.596Z,55
2022-08-03T19:32:59.528Z,55
2022-08-03T19:38:00.986Z,57
2022-08-03T19:43:00.498Z,57
2022-08-03T19:47:58.793Z,58
2022-08-03T19:52:59.823Z,58
2022-08-03T19:57:58.977Z,58
2022-08-03T20:02:59.262Z,58
2022-08-03T20:07:58.540Z,61
2022-08-03T20:12:58.733Z,61
2022-08-03T20:17:59.351Z,64
2022-08-03T20:22:58.464Z,64
2022-08-03T20:28:15.086Z,64
2022-08-03T20:32:58.861Z,64
2022-08-03T20:37:59.957Z,67
2022-08-03T20:42:59.021Z,67
2022-08-03T20:47:58.660Z,67
2022-08-03T20:53:02.867Z,67
2022-08-03T20:58:00.231Z,67
2022-08-03T21:03:00.932Z,67
2022-08-03T21:08:07.130Z,68
2022-08-03T21:13:04.674Z,45
2022-08-03T21:13:17.043Z,68
2022-08-03T21:17:59.991Z,68
2022-08-03T21:22:58.932Z,68
2022-08-03T21:27:59.101Z,69
2022-08-03T21:32:59.328Z,69
2022-08-03T21:37:59.618Z,69
2022-08-03T21:42:58.714Z,69
2022-08-03T21:47:58.843Z,71
2022-08-03T21:52:59.132Z,71
2022-08-03T21:57:59.236Z,73
2022-08-03T22:03:17.850Z,73
2022-08-03T22:07:59.050Z,75
2022-08-03T22:12:59.403Z,75
2022-08-03T22:17:59.521Z,77
2022-08-03T22:22:58.872Z,77
2022-08-03T22:27:59.119Z,78
2022-08-03T22:32:59.185Z,78
2022-08-03T22:37:59.433Z,79
2022-08-03T22:42:58.580Z,79
2022-08-03T22:47:58.777Z,80
2022-08-03T22:52:59.048Z,80
2022-08-03T22:57:59.283Z,81
2022-08-03T23:02:59.483Z,81
2022-08-03T23:07:58.907Z,81
2022-08-03T23:12:58.866Z,81
2022-08-03T23:17:59.065Z,82
2022-08-03T23:22:59.255Z,82
2022-08-03T23:28:06.253Z,83
2022-08-03T23:32:59.362Z,83
2022-08-03T23:38:23.209Z,83
2022-08-03T23:42:58.608Z,83
2022-08-03T23:47:58.848Z,84
2022-08-03T23:52:59.011Z,84
2022-08-03T23:57:59.214Z,85
